createdAt,value
2022-12-15T00:06:48.360Z,42.70
2022-12-15T00:17:08.750Z,43.20
2022-12-15T00:27:30.757Z,30.42
2022-12-15T00:37:51.158Z,33.13
2022-12-15T00:58:15.984Z,34.73
2022-12-15T01:08:37.873Z,39.67
2022-12-15T01:18:58.286Z,35.63
2022-12-15T01:29:02.777Z,42.03
2022-12-15T01:39:05.819Z,38.30
2022-12-15T01:49:16.913Z,36.17
2022-12-15T01:59:25.012Z,45.07
2022-12-15T02:09:29.878Z,38.33
2022-12-15T02:20:04.074Z,38.23
2022-12-15T02:30:29.830Z,35.70
2022-12-15T02:40:33.489Z,36.20
2022-12-15T02:51:01.779Z,34.13
2022-12-15T03:01:08.931Z,35.53
2022-12-15T03:11:13.236Z,29.40
2022-12-15T03:21:16.306Z,35.90
2022-12-15T03:41:41.743Z,36.53
2022-12-15T03:51:46.203Z,33.37
2022-12-15T04:01:49.839Z,37.90
2022-12-15T04:11:54.030Z,31.47
2022-12-15T04:21:58.112Z,31.10
2022-12-15T04:32:20.579Z,32.47
2022-12-15T04:42:41.602Z,30.50
2022-12-15T04:53:03.140Z,29.63
2022-12-15T05:03:24.305Z,26.70
2022-12-15T05:13:45.919Z,38.03
2022-12-15T05:24:06.387Z,28.07
2022-12-15T05:34:10.606Z,115.83
2022-12-15T05:44:14.045Z,43.43
2022-12-15T05:54:20.330Z,55.23
2022-12-15T06:04:23.493Z,69.50
2022-12-15T06:14:27.895Z,67.60
2022-12-15T06:24:30.797Z,41.80
2022-12-15T06:34:34.890Z,35.60
2022-12-15T06:44:37.932Z,33.57
2022-12-15T06:54:42.341Z,30.93
2022-12-15T07:04:45.557Z,28.07
2022-12-15T07:14:53.336Z,34.77
2022-12-15T07:24:56.613Z,36.60
2022-12-15T07:35:01.002Z,40.30
2022-12-15T07:45:04.339Z,49.13
2022-12-15T07:55:09.617Z,58.00
2022-12-15T08:05:12.436Z,56.50
2022-12-15T08:15:16.986Z,67.80
2022-12-15T08:25:20.192Z,67.70
2022-12-15T08:35:55.331Z,56.70
2022-12-15T08:45:47.847Z,61.90
2022-12-15T08:55:54.906Z,66.70
2022-12-15T09:05:59.131Z,63.73
2022-12-15T09:16:11.015Z,78.83
2022-12-15T09:26:15.992Z,75.23
2022-12-15T09:36:21.725Z,80.50
2022-12-15T09:46:35.659Z,65.17
2022-12-15T09:56:49.635Z,70.43
2022-12-15T10:06:59.809Z,78.20
2022-12-15T10:17:15.088Z,76.10
2022-12-15T10:27:32.777Z,85.73
2022-12-15T10:37:37.808Z,82.93
2022-12-15T10:47:41.126Z,77.57
2022-12-15T10:57:59.299Z,82.23
2022-12-15T11:08:16.638Z,85.43
2022-12-15T11:18:37.203Z,77.57
2022-12-15T11:38:51.604Z,68.23
2022-12-15T11:49:10.751Z,61.07
2022-12-15T11:59:33.308Z,60.73
2022-12-15T12:09:38.746Z,74.00
2022-12-15T12:19:50.786Z,60.03
2022-12-15T12:30:00.453Z,57.53
2022-12-15T12:40:09.179Z,61.40
2022-12-15T12:50:20.860Z,64.67
2022-12-15T13:00:27.814Z,61.10
2022-12-15T13:10:31.112Z,60.60
2022-12-15T13:20:37.786Z,58.60
2022-12-15T13:31:23.728Z,60.33
2022-12-15T13:41:28.254Z,66.43
2022-12-15T13:51:39.175Z,61.13
2022-12-15T14:01:52.011Z,63.90
2022-12-15T14:11:55.634Z,61.40
2022-12-15T14:22:00.284Z,67.53
2022-12-15T14:32:04.173Z,61.53
2022-12-15T14:42:09.320Z,67.27
2022-12-15T14:52:27.000Z,62.93
2022-12-15T15:02:31.904Z,72.60
2022-12-15T15:12:45.337Z,70.30
2022-12-15T15:23:04.699Z,66.33
2022-12-15T15:33:09.947Z,74.00
2022-12-15T15:43:15.136Z,68.77
2022-12-15T15:53:20.927Z,72.57
2022-12-15T16:03:25.659Z,66.30
2022-12-15T16:13:29.325Z,68.10
2022-12-15T16:23:34.455Z,77.70
2022-12-15T16:33:37.503Z,76.73
2022-12-15T16:43:47.712Z,62.77
2022-12-15T16:53:51.306Z,70.30
2022-12-15T17:03:57.157Z,67.57
2022-12-15T17:14:01.172Z,68.30
2022-12-15T17:24:12.097Z,71.43
2022-12-15T17:34:26.694Z,78.67
2022-12-15T17:44:35.684Z,75.00
2022-12-15T17:54:39.706Z,81.78
2022-12-15T18:04:44.820Z,73.87
2022-12-15T18:14:48.019Z,71.53
2022-12-15T18:24:54.086Z,61.43
2022-12-15T18:34:57.539Z,63.87
2022-12-15T18:45:05.799Z,63.03
2022-12-15T18:55:17.735Z,79.57
2022-12-15T19:05:29.041Z,75.20
2022-12-15T19:15:32.528Z,73.67
2022-12-15T19:25:37.464Z,70.67
2022-12-15T19:35:42.955Z,60.27
2022-12-15T19:45:47.483Z,69.17
2022-12-15T19:55:51.831Z,72.10
2022-12-15T20:05:57.797Z,81.37
2022-12-15T20:16:01.070Z,73.30
2022-12-15T20:26:07.448Z,67.87
2022-12-15T20:36:15.286Z,74.20
2022-12-15T20:46:23.603Z,72.43
2022-12-15T20:56:27.767Z,85.33
2022-12-15T21:06:32.579Z,70.87
2022-12-15T21:16:35.759Z,71.97
2022-12-15T21:26:39.987Z,80.53
2022-12-15T21:36:46.763Z,79.57
2022-12-15T21:46:51.654Z,82.63
2022-12-15T21:56:55.247Z,79.17
2022-12-15T22:07:00.099Z,66.33
2022-12-15T22:17:14.060Z,70.40
2022-12-15T22:27:21.438Z,74.70
2022-12-15T22:37:24.823Z,69.30
2022-12-15T22:47:29.656Z,75.27
2022-12-15T22:57:32.902Z,78.17
2022-12-15T23:07:40.371Z,68.33
2022-12-15T23:17:44.001Z,64.40
2022-12-15T23:27:48.354Z,70.93
2022-12-15T23:37:51.493Z,66.90
2022-12-15T23:48:15.747Z,70.30
2022-12-15T23:58:18.768Z,79.37
